createdAt,value
2023-12-12T00:02:01.327Z,234.80
2023-12-12T00:04:28.201Z,257.88
2023-12-12T00:06:55.089Z,244.13
2023-12-12T00:09:21.888Z,183.68
2023-12-12T00:11:48.699Z,178.45
2023-12-12T00:14:15.526Z,188.25
2023-12-12T00:16:42.320Z,195.77
2023-12-12T00:19:10.138Z,180.15
2023-12-12T00:21:37.056Z,195.30
2023-12-12T00:24:04.039Z,185.00
2023-12-12T00:26:30.897Z,191.48
2023-12-12T00:28:57.745Z,201.67
2023-12-12T00:31:24.649Z,204.02
2023-12-12T00:33:51.629Z,228.83
2023-12-12T00:36:18.580Z,256.50
2023-12-12T00:38:45.372Z,373.90
2023-12-12T00:41:12.418Z,343.52
2023-12-12T00:43:41.338Z,381.97
2023-12-12T00:46:08.194Z,368.05
2023-12-12T00:48:35.158Z,364.30
2023-12-12T00:51:01.957Z,319.05
2023-12-12T00:53:29.042Z,363.63
2023-12-12T00:55:55.852Z,390.25
2023-12-12T00:58:22.705Z,414.67
2023-12-12T01:00:49.641Z,455.10
2023-12-12T01:03:16.538Z,437.23
2023-12-12T01:05:43.684Z,491.02
2023-12-12T01:08:10.537Z,516.42
2023-12-12T01:10:37.582Z,524.88
2023-12-12T01:13:05.532Z,633.05
2023-12-12T01:15:32.465Z,646.88
2023-12-12T01:17:59.593Z,627.60
2023-12-12T01:20:26.481Z,586.88
2023-12-12T01:22:53.608Z,608.30
2023-12-12T01:25:20.455Z,604.03
2023-12-12T01:27:47.330Z,659.88
2023-12-12T01:30:14.304Z,627.33
2023-12-12T01:32:41.222Z,587.83
2023-12-12T01:35:08.538Z,657.73
2023-12-12T01:37:35.667Z,421.60
2023-12-12T01:40:03.068Z,455.58
2023-12-12T01:42:30.051Z,563.22
2023-12-12T01:44:56.855Z,584.70
2023-12-12T01:47:23.769Z,620.33
2023-12-12T01:49:50.887Z,625.73
2023-12-12T01:52:18.114Z,628.22
2023-12-12T01:54:48.691Z,651.40
2023-12-12T01:57:18.016Z,644.10
2023-12-12T01:59:47.148Z,658.15
2023-12-12T02:02:17.915Z,633.15
2023-12-12T02:04:47.089Z,618.42
2023-12-12T02:07:14.553Z,593.97
2023-12-12T02:09:41.727Z,593.03
2023-12-12T02:12:08.571Z,608.97
2023-12-12T02:14:38.317Z,617.67
2023-12-12T02:17:05.763Z,597.93
2023-12-12T02:19:32.692Z,653.03
2023-12-12T02:21:59.698Z,598.80
2023-12-12T02:24:26.550Z,574.97
2023-12-12T02:26:53.633Z,568.65
2023-12-12T02:29:20.460Z,522.65
2023-12-12T02:31:47.239Z,642.53
2023-12-12T02:34:14.123Z,648.53
2023-12-12T02:36:40.913Z,662.15
2023-12-12T02:39:07.801Z,658.08
2023-12-12T02:41:34.629Z,696.55
2023-12-12T02:44:01.516Z,767.15
2023-12-12T02:46:28.328Z,671.85
2023-12-12T02:48:55.297Z,691.42
2023-12-12T02:51:22.146Z,703.92
2023-12-12T02:53:49.034Z,673.85
2023-12-12T02:56:15.816Z,656.20
2023-12-12T02:58:42.586Z,632.67
2023-12-12T03:01:13.360Z,616.63
2023-12-12T03:03:40.486Z,664.63
2023-12-12T03:06:10.303Z,672.38
2023-12-12T03:08:37.121Z,688.47
2023-12-12T03:11:04.015Z,664.25
2023-12-12T03:13:30.917Z,656.37
2023-12-12T03:15:57.837Z,636.60
2023-12-12T03:18:24.849Z,695.07
2023-12-12T03:20:51.750Z,633.22
2023-12-12T03:23:18.589Z,677.08
2023-12-12T03:25:45.401Z,675.20
2023-12-12T03:28:12.607Z,665.43
2023-12-12T03:30:39.427Z,607.10
2023-12-12T03:33:07.499Z,647.30
2023-12-12T03:35:34.340Z,664.23
2023-12-12T03:38:01.334Z,657.63
2023-12-12T03:40:28.173Z,680.07
2023-12-12T03:42:55.122Z,613.97
2023-12-12T03:45:21.884Z,588.58
2023-12-12T03:47:49.066Z,628.55
2023-12-12T03:50:16.013Z,615.27
2023-12-12T03:52:43.252Z,580.00
2023-12-12T03:55:11.328Z,589.38
2023-12-12T03:57:38.180Z,616.83
2023-12-12T04:00:08.294Z,615.63
2023-12-12T04:02:44.337Z,606.20
2023-12-12T04:05:11.339Z,563.00
2023-12-12T04:07:39.231Z,560.20
2023-12-12T04:10:07.807Z,570.95
2023-12-12T04:12:35.674Z,523.50
2023-12-12T04:15:02.978Z,566.33
2023-12-12T04:17:30.677Z,570.65
2023-12-12T04:19:57.934Z,576.33
2023-12-12T04:22:24.798Z,560.10
2023-12-12T04:24:51.752Z,597.47
2023-12-12T04:27:18.625Z,589.53
2023-12-12T04:29:45.390Z,583.75
2023-12-12T04:32:12.228Z,549.45
2023-12-12T04:34:39.048Z,544.95
2023-12-12T04:37:06.033Z,617.40
2023-12-12T04:39:32.852Z,501.95
2023-12-12T04:41:59.634Z,510.10
2023-12-12T04:44:26.710Z,520.38
2023-12-12T04:46:53.650Z,505.03
2023-12-12T04:49:21.823Z,485.02
2023-12-12T04:51:48.747Z,514.58
2023-12-12T04:54:15.644Z,493.15
2023-12-12T04:56:42.425Z,469.15
2023-12-12T04:59:09.192Z,488.38
2023-12-12T05:01:36.090Z,462.07
2023-12-12T05:04:03.052Z,431.88
2023-12-12T05:06:29.925Z,449.90
2023-12-12T05:08:56.978Z,461.33
2023-12-12T05:11:23.771Z,533.33
2023-12-12T05:13:50.656Z,469.55
2023-12-12T05:16:24.625Z,519.25
2023-12-12T05:18:58.680Z,530.00
2023-12-12T05:21:26.993Z,524.10
2023-12-12T05:23:53.832Z,543.05
2023-12-12T05:26:21.023Z,505.20
2023-12-12T05:28:48.093Z,571.70
2023-12-12T05:31:14.996Z,537.45
2023-12-12T05:33:42.397Z,516.25
2023-12-12T05:36:10.398Z,512.50
2023-12-12T05:38:39.968Z,427.63
2023-12-12T05:41:07.555Z,490.10
2023-12-12T05:43:34.550Z,479.02
2023-12-12T05:46:01.583Z,492.73
2023-12-12T05:48:28.399Z,490.95
2023-12-12T05:50:56.110Z,441.88
2023-12-12T05:53:22.940Z,619.97
2023-12-12T05:55:49.741Z,608.13
2023-12-12T05:58:16.584Z,559.28
2023-12-12T06:00:43.553Z,577.60
2023-12-12T06:03:10.344Z,601.38
2023-12-12T06:05:37.153Z,563.28
2023-12-12T06:08:04.100Z,608.97
2023-12-12T06:10:30.962Z,586.77
2023-12-12T06:12:58.533Z,532.22
2023-12-12T06:15:25.407Z,491.45
2023-12-12T06:17:52.306Z,398.40
2023-12-12T06:20:19.115Z,437.85
2023-12-12T06:22:46.707Z,453.90
2023-12-12T06:25:13.702Z,454.85
2023-12-12T06:27:40.586Z,467.65
2023-12-12T06:30:08.501Z,450.97
2023-12-12T06:32:35.623Z,421.38
2023-12-12T06:35:05.366Z,445.13
2023-12-12T06:37:32.678Z,409.98
2023-12-12T06:39:59.878Z,400.27
2023-12-12T06:42:27.021Z,401.90
2023-12-12T06:44:53.910Z,411.30
2023-12-12T06:47:21.197Z,459.13
2023-12-12T06:49:48.315Z,500.45
2023-12-12T06:52:15.193Z,458.97
2023-12-12T06:54:42.074Z,519.03
2023-12-12T06:57:08.950Z,469.10
2023-12-12T06:59:35.724Z,482.30
2023-12-12T07:02:03.162Z,431.25
2023-12-12T07:04:30.234Z,451.52
2023-12-12T07:06:57.192Z,409.73
2023-12-12T07:09:24.035Z,419.10
2023-12-12T07:11:50.890Z,425.17
2023-12-12T07:14:17.671Z,423.92
2023-12-12T07:16:44.527Z,424.38
2023-12-12T07:19:11.446Z,428.15
2023-12-12T07:21:45.653Z,425.65
2023-12-12T07:24:15.725Z,417.80
2023-12-12T07:26:46.707Z,426.02
2023-12-12T07:29:18.529Z,414.60
2023-12-12T07:31:46.815Z,300.45
2023-12-12T07:34:14.331Z,331.42
2023-12-12T07:36:42.441Z,345.40
2023-12-12T07:39:09.426Z,352.73
2023-12-12T07:41:36.360Z,373.10
2023-12-12T07:44:04.220Z,350.37
2023-12-12T07:46:36.801Z,363.75
2023-12-12T07:49:03.993Z,391.80
2023-12-12T07:51:33.639Z,686.47
2023-12-12T07:54:07.160Z,549.03
2023-12-12T07:56:34.163Z,548.92
2023-12-12T07:59:01.070Z,431.48
2023-12-12T08:01:28.698Z,563.92
2023-12-12T08:03:56.183Z,406.93
2023-12-12T08:06:23.397Z,687.65
2023-12-12T08:08:50.340Z,668.50
2023-12-12T08:11:17.278Z,329.45
2023-12-12T08:13:45.079Z,276.67
2023-12-12T08:16:12.402Z,250.02
2023-12-12T08:18:39.537Z,250.48
2023-12-12T08:21:07.654Z,238.73
2023-12-12T08:23:36.019Z,230.85
2023-12-12T08:26:03.333Z,569.13
2023-12-12T08:28:30.341Z,555.97
2023-12-12T08:30:57.750Z,605.97
2023-12-12T08:33:25.217Z,397.13
2023-12-12T08:35:52.240Z,369.60
2023-12-12T08:38:19.177Z,339.48
2023-12-12T08:40:46.451Z,402.17
2023-12-12T08:43:13.453Z,518.28
2023-12-12T08:45:40.603Z,1113.20
2023-12-12T08:48:08.726Z,1123.15
2023-12-12T08:50:36.856Z,1111.90
2023-12-12T08:53:04.453Z,1090.60
2023-12-12T08:55:31.648Z,1111.67
2023-12-12T08:57:58.667Z,1109.25
2023-12-12T09:00:25.743Z,1114.82
2023-12-12T09:02:52.972Z,1120.03
2023-12-12T09:05:19.900Z,1122.00
2023-12-12T09:07:46.976Z,1117.38
2023-12-12T09:10:14.116Z,1116.10
2023-12-12T09:12:41.422Z,1117.60
2023-12-12T09:15:08.732Z,1113.40
2023-12-12T09:17:36.269Z,1119.93
2023-12-12T09:20:04.201Z,1120.63
2023-12-12T09:22:31.874Z,1112.43
2023-12-12T09:24:58.882Z,1103.60
2023-12-12T09:27:25.843Z,1111.97
2023-12-12T09:29:54.668Z,1115.53
2023-12-12T09:32:22.577Z,1112.75
2023-12-12T09:34:49.456Z,1117.20
2023-12-12T09:37:17.129Z,1110.68
2023-12-12T09:39:43.976Z,1113.43
2023-12-12T09:42:18.073Z,1112.20
2023-12-12T09:45:01.307Z,1113.30
2023-12-12T09:47:30.256Z,1116.97
2023-12-12T09:49:59.620Z,1118.80
2023-12-12T09:52:29.443Z,1123.63
2023-12-12T09:55:00.265Z,1122.45
2023-12-12T09:57:30.729Z,1079.45
2023-12-12T09:59:59.360Z,1128.30
2023-12-12T10:02:35.221Z,1125.57
2023-12-12T10:05:05.985Z,1119.20
2023-12-12T10:07:34.901Z,1121.60
2023-12-12T10:10:06.829Z,1089.93
2023-12-12T10:12:33.870Z,1047.70
2023-12-12T10:15:00.837Z,1123.18
2023-12-12T10:17:28.452Z,1123.13
2023-12-12T10:20:01.321Z,1120.80
2023-12-12T10:22:32.906Z,1132.10
2023-12-12T10:25:15.855Z,1133.75
2023-12-12T10:27:43.772Z,1135.30
2023-12-12T10:30:14.274Z,1138.07
2023-12-12T10:32:41.722Z,1138.90
2023-12-12T10:35:08.873Z,1015.65
2023-12-12T10:37:35.977Z,988.05
2023-12-12T10:40:13.680Z,1058.30
2023-12-12T10:42:43.829Z,1046.33
2023-12-12T10:45:15.600Z,1093.13
2023-12-12T10:47:48.274Z,1003.20
2023-12-12T10:50:16.985Z,1045.20
2023-12-12T10:52:46.422Z,947.35
2023-12-12T10:55:17.554Z,749.83
2023-12-12T10:57:48.598Z,858.97
2023-12-12T11:00:19.486Z,710.30
2023-12-12T11:02:49.796Z,765.97
2023-12-12T11:05:17.562Z,719.95
2023-12-12T11:07:49.689Z,679.08
2023-12-12T11:10:23.157Z,615.83
2023-12-12T11:12:57.909Z,1032.72
2023-12-12T11:15:27.480Z,1105.83
2023-12-12T11:17:54.846Z,992.80
2023-12-12T11:20:22.946Z,1116.97
2023-12-12T11:22:52.903Z,1017.30
2023-12-12T11:25:21.879Z,1118.97
2023-12-12T11:27:53.652Z,1067.97
2023-12-12T11:30:30.186Z,1082.25
2023-12-12T11:32:57.566Z,1121.35
2023-12-12T11:35:27.209Z,1088.97
2023-12-12T11:37:55.333Z,1099.75
2023-12-12T11:40:24.824Z,1103.32
2023-12-12T11:42:53.190Z,1098.53
2023-12-12T11:45:33.905Z,1102.95
2023-12-12T11:48:03.522Z,1106.57
2023-12-12T11:50:32.091Z,1106.65
2023-12-12T11:52:59.905Z,1121.77
2023-12-12T11:55:32.431Z,1122.90
2023-12-12T11:58:02.973Z,1127.18
2023-12-12T12:00:34.612Z,1131.93
2023-12-12T12:03:02.488Z,1142.40
2023-12-12T12:05:29.775Z,1136.10
2023-12-12T12:07:57.309Z,1138.53
2023-12-12T12:10:25.484Z,1157.47
2023-12-12T12:13:02.275Z,1176.60
2023-12-12T12:15:29.619Z,928.83
2023-12-12T12:17:59.492Z,750.42
2023-12-12T12:20:27.671Z,1071.57
2023-12-12T12:22:55.127Z,1088.57
2023-12-12T12:25:28.443Z,874.40
2023-12-12T12:27:57.101Z,733.83
2023-12-12T12:30:26.472Z,750.38
2023-12-12T12:33:04.844Z,1133.20
2023-12-12T12:35:32.358Z,1091.68
2023-12-12T12:37:59.973Z,1090.38
2023-12-12T12:40:35.574Z,963.72
2023-12-12T12:43:06.100Z,888.60
2023-12-12T12:45:34.357Z,965.83
2023-12-12T12:48:01.523Z,1119.35
2023-12-12T12:50:28.628Z,1033.70
2023-12-12T12:52:55.844Z,914.42
2023-12-12T12:55:23.077Z,967.78
2023-12-12T12:57:50.303Z,485.63
2023-12-12T13:00:18.462Z,378.75
2023-12-12T13:02:46.155Z,350.48
2023-12-12T13:05:13.578Z,239.85
2023-12-12T13:07:40.951Z,221.18
2023-12-12T13:10:11.376Z,293.15
2023-12-12T13:12:41.595Z,292.70
2023-12-12T13:15:12.248Z,404.70
2023-12-12T13:17:39.780Z,390.95
2023-12-12T13:20:10.926Z,310.85
2023-12-12T13:22:45.781Z,354.10
2023-12-12T13:25:14.754Z,247.82
2023-12-12T13:27:43.124Z,338.67
2023-12-12T13:30:11.742Z,306.40
2023-12-12T13:32:55.988Z,370.67
2023-12-12T13:37:57.219Z,329.85
2023-12-12T13:40:27.578Z,358.02
2023-12-12T13:43:02.182Z,495.00
2023-12-12T13:45:29.273Z,714.20
2023-12-12T13:47:57.432Z,1068.27
2023-12-12T13:50:24.521Z,1042.78
2023-12-12T13:52:53.973Z,1085.13
2023-12-12T13:55:21.071Z,1077.30
2023-12-12T13:57:48.012Z,1104.15
2023-12-12T14:00:18.374Z,1013.53
2023-12-12T14:02:46.178Z,1089.55
2023-12-12T14:05:14.645Z,1085.47
2023-12-12T14:07:42.235Z,1012.70
2023-12-12T14:10:09.813Z,821.58
2023-12-12T14:12:37.165Z,838.38
2023-12-12T14:15:05.006Z,924.38
2023-12-12T14:17:32.247Z,974.95
2023-12-12T14:19:59.582Z,1073.93
2023-12-12T14:22:26.865Z,1104.30
2023-12-12T14:24:53.954Z,1090.65
2023-12-12T14:27:21.813Z,1005.80
2023-12-12T14:29:49.137Z,1073.55
2023-12-12T14:32:22.408Z,1060.22
2023-12-12T14:34:49.514Z,1109.63
2023-12-12T14:37:16.713Z,1123.37
2023-12-12T14:39:46.229Z,1104.57
2023-12-12T14:42:13.143Z,1036.40
2023-12-12T14:44:48.908Z,1094.28
2023-12-12T14:47:18.504Z,1118.97
2023-12-12T14:49:45.679Z,1155.65
2023-12-12T14:52:13.019Z,1132.20
2023-12-12T14:54:43.625Z,1114.32
2023-12-12T14:57:17.167Z,1125.88
2023-12-12T14:59:47.921Z,1134.82
2023-12-12T15:02:14.985Z,1125.97
2023-12-12T15:04:42.067Z,1105.43
2023-12-12T15:07:09.374Z,1104.85
2023-12-12T15:09:36.480Z,965.58
2023-12-12T15:12:07.012Z,1056.20
2023-12-12T15:14:43.116Z,795.78
2023-12-12T15:17:10.155Z,1115.37
2023-12-12T15:19:37.370Z,1120.03
2023-12-12T15:22:04.937Z,1109.00
2023-12-12T15:24:58.026Z,1113.70
2023-12-12T15:27:27.080Z,1120.20
2023-12-12T15:30:01.695Z,1122.05
2023-12-12T15:32:28.855Z,1125.80
2023-12-12T15:34:56.552Z,1135.40
2023-12-12T15:37:23.720Z,1135.10
2023-12-12T15:39:53.926Z,1141.77
2023-12-12T15:42:20.939Z,1161.70
2023-12-12T15:44:48.003Z,1139.15
2023-12-12T15:47:15.192Z,1183.85
2023-12-12T15:49:42.745Z,1145.37
2023-12-12T15:52:10.321Z,1169.95
2023-12-12T15:54:37.902Z,1167.57
2023-12-12T15:57:05.447Z,1162.63
2023-12-12T15:59:36.563Z,1204.73
2023-12-12T16:02:03.781Z,1140.30
2023-12-12T16:04:30.888Z,376.30
2023-12-12T16:06:57.860Z,450.67
2023-12-12T16:09:25.068Z,377.25
2023-12-12T16:11:53.598Z,436.20
2023-12-12T16:14:20.726Z,559.10
2023-12-12T16:16:47.895Z,616.63
2023-12-12T16:19:15.074Z,995.37
2023-12-12T16:21:42.397Z,1018.47
2023-12-12T16:24:10.681Z,1044.80
2023-12-12T16:26:37.884Z,1046.18
2023-12-12T16:29:05.023Z,1007.05
2023-12-12T16:31:32.184Z,1076.68
2023-12-12T16:33:59.559Z,899.50
2023-12-12T16:36:27.691Z,778.95
2023-12-12T16:39:01.192Z,656.53
2023-12-12T16:41:28.894Z,773.28
2023-12-12T16:43:56.609Z,744.13
2023-12-12T16:46:23.693Z,695.47
2023-12-12T16:48:50.908Z,654.75
2023-12-12T16:51:18.215Z,682.40
2023-12-12T16:53:45.583Z,703.15
2023-12-12T16:56:14.241Z,818.95
2023-12-12T16:58:41.987Z,897.10
2023-12-12T17:01:09.172Z,875.00
2023-12-12T17:03:36.754Z,868.88
2023-12-12T17:06:04.930Z,779.25
2023-12-12T17:08:32.194Z,915.38
2023-12-12T17:11:00.922Z,889.83
2023-12-12T17:13:27.985Z,876.47
2023-12-12T17:15:59.009Z,937.30
2023-12-12T17:18:28.166Z,959.87
2023-12-12T17:21:06.680Z,856.72
2023-12-12T17:23:51.110Z,921.28
2023-12-12T17:26:24.007Z,873.30
2023-12-12T17:28:51.170Z,933.60
2023-12-12T17:31:18.354Z,900.03
2023-12-12T17:33:45.563Z,857.35
2023-12-12T17:36:15.284Z,837.88
2023-12-12T17:38:44.301Z,802.05
2023-12-12T17:41:16.815Z,864.20
2023-12-12T17:43:44.563Z,847.72
2023-12-12T17:46:12.049Z,910.88
2023-12-12T17:48:40.849Z,933.33
2023-12-12T17:51:12.020Z,966.40
2023-12-12T17:53:39.213Z,1035.43
2023-12-12T17:56:07.560Z,1029.28
2023-12-12T17:58:35.733Z,989.17
2023-12-12T18:01:02.883Z,983.20
2023-12-12T18:03:31.238Z,972.83
2023-12-12T18:05:58.565Z,1087.28
2023-12-12T18:08:28.133Z,984.33
2023-12-12T18:10:55.235Z,1100.17
2023-12-12T18:13:24.036Z,1101.82
2023-12-12T18:15:51.097Z,1110.83
2023-12-12T18:18:18.494Z,1109.55
2023-12-12T18:20:49.162Z,1114.30
2023-12-12T18:23:16.274Z,1114.00
2023-12-12T18:25:43.906Z,1116.90
2023-12-12T18:28:11.567Z,1110.57
2023-12-12T18:30:44.680Z,1114.53
2023-12-12T18:33:12.111Z,1117.20
2023-12-12T18:35:39.424Z,1108.73
2023-12-12T18:38:07.025Z,1100.72
2023-12-12T18:41:06.297Z,1108.77
2023-12-12T18:43:33.430Z,1102.03
2023-12-12T18:46:00.515Z,1113.60
2023-12-12T18:48:28.491Z,1113.68
2023-12-12T18:50:55.782Z,1114.95
2023-12-12T18:53:22.867Z,1113.05
2023-12-12T18:55:52.042Z,1112.78
2023-12-12T18:58:19.335Z,1116.18
2023-12-12T19:00:46.468Z,1119.93
2023-12-12T19:03:13.852Z,1119.10
2023-12-12T19:05:41.026Z,1113.40
2023-12-12T19:08:08.432Z,1113.93
2023-12-12T19:10:37.445Z,1000.00
2023-12-12T19:13:04.663Z,863.90
2023-12-12T19:15:32.086Z,921.42
2023-12-12T19:17:59.171Z,1074.60
2023-12-12T19:20:27.120Z,1100.50
2023-12-12T19:22:54.173Z,1102.43
2023-12-12T19:25:21.318Z,1109.60
2023-12-12T19:27:50.673Z,1108.65
2023-12-12T19:30:18.014Z,1108.47
2023-12-12T19:32:45.142Z,1110.50
2023-12-12T19:35:13.487Z,1117.55
2023-12-12T19:37:40.651Z,1111.57
2023-12-12T19:40:09.108Z,1113.93
2023-12-12T19:42:36.267Z,1117.00
2023-12-12T19:45:04.289Z,1126.38
2023-12-12T19:47:31.877Z,1124.82
2023-12-12T19:50:05.599Z,1120.20
2023-12-12T19:53:05.236Z,1134.80
2023-12-12T19:58:26.141Z,1114.07
2023-12-12T20:00:53.404Z,1119.17
2023-12-12T20:03:24.550Z,1124.00
2023-12-12T20:05:53.037Z,1121.53
2023-12-12T20:08:20.003Z,1147.57
2023-12-12T20:10:47.163Z,1141.25
2023-12-12T20:13:16.391Z,1141.83
2023-12-12T20:15:43.815Z,1141.03
2023-12-12T20:18:10.931Z,1145.85
2023-12-12T20:20:40.198Z,1137.35
2023-12-12T20:23:07.168Z,1139.25
2023-12-12T20:25:34.289Z,1143.63
2023-12-12T20:28:06.288Z,1141.50
2023-12-12T20:30:36.264Z,1143.10
2023-12-12T20:33:04.018Z,1149.15
2023-12-12T20:35:31.351Z,1150.63
2023-12-12T20:37:58.671Z,1146.25
2023-12-12T20:40:25.729Z,1153.18
2023-12-12T20:42:52.737Z,1144.87
2023-12-12T20:45:19.747Z,1147.60
2023-12-12T20:47:49.145Z,1155.15
2023-12-12T20:50:16.259Z,1200.95
2023-12-12T20:52:43.406Z,1183.43
2023-12-12T20:55:11.123Z,1179.30
2023-12-12T20:57:38.607Z,1191.50
2023-12-12T21:00:10.772Z,1141.10
2023-12-12T21:02:38.373Z,1173.40
2023-12-12T21:05:05.875Z,1200.70
2023-12-12T21:07:33.532Z,1198.05
2023-12-12T21:10:00.905Z,1197.18
2023-12-12T21:12:28.262Z,1196.35
2023-12-12T21:15:09.004Z,1199.57
2023-12-12T21:17:56.668Z,1205.28
2023-12-12T21:20:48.996Z,1146.50
2023-12-12T21:23:16.034Z,1126.65
2023-12-12T21:25:43.269Z,1123.10
2023-12-12T21:28:10.318Z,1129.60
2023-12-12T21:30:39.596Z,1134.78
2023-12-12T21:33:07.101Z,1144.00
2023-12-12T21:35:34.633Z,1162.75
2023-12-12T21:38:01.672Z,1155.32
2023-12-12T21:40:32.366Z,1220.13
2023-12-12T21:42:59.428Z,1218.90
2023-12-12T21:45:27.053Z,1167.78
2023-12-12T21:47:55.410Z,1153.45
2023-12-12T21:50:22.830Z,1171.65
2023-12-12T21:52:49.973Z,1210.53
2023-12-12T21:55:20.545Z,1212.57
2023-12-12T21:57:47.789Z,1164.88
2023-12-12T22:04:15.727Z,1150.90
2023-12-12T22:06:42.786Z,1152.22
2023-12-12T22:09:09.853Z,1156.30
2023-12-12T22:11:42.624Z,1157.53
2023-12-12T22:14:16.355Z,1176.25
2023-12-12T22:16:43.567Z,1139.18
2023-12-12T22:19:10.629Z,1140.75
2023-12-12T22:21:38.203Z,1150.43
2023-12-12T22:24:06.312Z,1147.38
2023-12-12T22:26:33.228Z,1148.88
2023-12-12T22:29:03.324Z,1189.18
2023-12-12T22:31:30.627Z,1150.50
2023-12-12T22:33:57.943Z,1144.45
2023-12-12T22:36:24.975Z,1144.13
2023-12-12T22:39:27.814Z,1145.63
2023-12-12T22:41:53.245Z,1169.40
2023-12-12T22:44:20.849Z,1162.22
2023-12-12T22:46:50.782Z,1179.70
2023-12-12T22:49:17.883Z,1184.47
2023-12-12T22:51:45.305Z,1164.80
2023-12-12T22:54:12.291Z,1141.47
2023-12-12T22:56:39.271Z,1173.10
2023-12-12T22:59:09.446Z,1148.35
2023-12-12T23:01:42.455Z,1150.00
2023-12-12T23:04:10.793Z,1193.40
2023-12-12T23:06:37.975Z,1190.40
2023-12-12T23:09:07.249Z,1195.22
2023-12-12T23:11:36.953Z,1189.35
2023-12-12T23:14:04.587Z,1195.85
2023-12-12T23:16:34.209Z,1193.63
2023-12-12T23:19:01.623Z,1194.45
2023-12-12T23:21:32.464Z,1182.28
2023-12-12T23:23:59.615Z,1168.88
2023-12-12T23:26:26.869Z,1179.95
2023-12-12T23:29:14.130Z,1173.10
2023-12-12T23:31:44.525Z,1211.13
2023-12-12T23:34:14.766Z,1222.65
2023-12-12T23:36:44.859Z,1220.25
2023-12-12T23:39:11.868Z,1201.68
2023-12-12T23:41:43.813Z,1196.32
2023-12-12T23:44:10.965Z,1197.53
2023-12-12T23:46:42.916Z,1143.93
2023-12-12T23:52:07.983Z,1159.35
2023-12-12T23:54:35.668Z,1193.87
2023-12-12T23:57:04.409Z,1205.35
2023-12-12T23:59:31.524Z,1198.38
